Погода Кызылтуна 2 недели

Алматинская область, Казахстан

18 - 31 июля
  • 18июля
    Сегодня
    +18°
    +32°
    Небольшая облачность
    ВремяПогодаТемператураВлажностьДавлениеВетер, м/сВероятность осадков
    02:00Небольшая облачность+19°C79 %699 мм1.2 м/с7 %
    05:00Небольшая облачность+18°C77 %698 мм1.3 м/с2 %
    08:00Облачно с прояснениями+23°C68 %700 мм2.8 м/с29 %
    11:00Небольшая облачность, возможен дождь с грозой+28°C55 %700 мм2.9 м/с54 %
    14:00Небольшая облачность+31°C41 %699 мм0.3 м/с33 %
    17:00Практически безоблачно+30°C40 %698 мм1.5 м/с15 %
    20:00Небольшая облачность+23°C56 %698 мм1.3 м/с8 %
    23:00Облачно с прояснениями+20°C65 %697 мм1.8 м/с10 %
  • 19июля
    Пятница
    +19°
    +34°
    Небольшая облачность
    ВремяПогодаТемператураВлажностьДавлениеВетер, м/сВероятность осадков
    02:00Облачно с прояснениями+19°C66 %697 мм2.4 м/с12 %
    05:00Практически безоблачно+19°C73 %697 мм1.4 м/с12 %
    08:00Ясно и безоблачно+26°C49 %698 мм0.9 м/с9 %
    11:00Практически безоблачно+30°C39 %698 мм1.1 м/с7 %
    14:00Небольшая облачность+34°C34 %697 мм0.7 м/с17 %
    17:00Небольшая облачность+32°C37 %697 мм1.0 м/с25 %
    20:00Небольшая облачность, ливень+23°C84 %698 мм2.2 м/с42 %
    23:00Практически безоблачно+20°C83 %697 мм2.0 м/с13 %
  • 20июля
    Суббота
    +18°
    +34°
    Небольшая облачность
    ВремяПогодаТемператураВлажностьДавлениеВетер, м/сВероятность осадков
    02:00Ясно и безоблачно+20°C71 %697 мм1.5 м/с2 %
    05:00Ясно и безоблачно+20°C66 %697 мм0.3 м/с1 %
    08:00Ясно и безоблачно+26°C58 %699 мм1.0 м/с2 %
    11:00Ясно и безоблачно+31°C39 %699 мм1.2 м/с2 %
    14:00Небольшая облачность+34°C34 %698 мм1.7 м/с6 %
    17:00Практически безоблачно+32°C38 %698 мм0.7 м/с20 %
    20:00Ясно и безоблачно+23°C58 %698 мм1.9 м/с31 %
    23:00Ясно и безоблачно+21°C65 %698 мм2.7 м/с26 %
  • 21июля
    Воскресенье
    +17°
    +33°
    Практически безоблачно
    ВремяПогодаТемператураВлажностьДавлениеВетер, м/сВероятность осадков
    02:00Облачно с прояснениями+19°C82 %700 мм0.5 м/с27 %
    05:00Ясно и безоблачно+19°C86 %699 мм0.7 м/с26 %
    08:00Небольшая облачность+23°C72 %701 мм2.2 м/с24 %
    11:00Практически безоблачно+29°C45 %701 мм1.3 м/с17 %
    14:00Практически безоблачно+33°C37 %701 мм1.0 м/с9 %
    17:00Практически безоблачно+31°C42 %701 мм1.2 м/с15 %
    20:00Практически безоблачно+26°C60 %701 мм2.1 м/с8 %
    23:00Ясно и безоблачно+24°C65 %700 мм1.0 м/с4 %
  • 22июля
    Понедельник
    +17°
    +34°
    Ясно и безоблачно
    ВремяПогодаТемператураВлажностьДавлениеВетер, м/сВероятность осадков
    02:00Ясно и безоблачно+20°C71 %698 мм0.7 м/с5 %
    05:00Ясно и безоблачно+18°C84 %699 мм0.2 м/с3 %
    08:00Ясно и безоблачно+26°C55 %700 мм1.1 м/с2 %
    11:00Ясно и безоблачно+32°C34 %700 мм3.6 м/с2 %
    14:00Ясно и безоблачно+34°C30 %700 мм2.9 м/с7 %
    17:00Ясно и безоблачно+32°C32 %699 мм2.4 м/с3 %
    20:00Ясно и безоблачно+27°C40 %699 мм1.0 м/с6 %
    23:00Ясно и безоблачно+21°C61 %697 мм1.1 м/с3 %
Мы используем cookies
Соглашаюсь